Time;durP1;ratioP1;P1;durP2;ratioP2;P2;SDS_P1;SDS_P2;PMS_P1;PMS_P2;Temp;Humidity;BMP_temperature;BMP_pressure;BME280_temperature;BME280_humidity;BME280_pressure;Samples;Min_cycle;Max_cycle;Signal;HPM_P1;HPM_P2
2020/12/29 00:01:41;;;;;;;45.52;15.28;;;;;;;7.37;82.55;100200.05;1746060;81;21199;-67
2020/12/29 00:04:11;;;;;;;47.20;16.50;;;;;;;7.41;82.54;100198.31;1744951;81;21172;-67
2020/12/29 00:06:52;;;;;;;55.50;16.02;;;;;;;7.39;82.94;100202.67;1753298;81;21130;-68
2020/12/29 00:09:24;;;;;;;50.28;15.00;;;;;;;7.43;82.72;100196.11;1750702;81;21154;-67
2020/12/29 00:11:52;;;;;;;52.10;16.67;;;;;;;7.47;82.68;100186.94;1727857;81;21233;-67
2020/12/29 00:14:21;;;;;;;35.15;13.83;;;;;;;7.50;82.60;100191.75;1730141;81;21184;-67
2020/12/29 00:16:48;;;;;;;37.53;14.95;;;;;;;7.54;82.50;100180.36;1718202;82;21307;-67
2020/12/29 00:19:25;;;;;;;63.73;15.98;;;;;;;7.56;82.53;100180.38;1740387;81;21177;-67
2020/12/29 00:21:52;;;;;;;45.63;16.23;;;;;;;7.57;82.75;100169.02;1712162;82;21142;-67
2020/12/29 00:24:20;;;;;;;60.55;14.93;;;;;;;7.61;82.73;100175.10;1714368;82;21605;-67
2020/12/29 00:26:50;;;;;;;49.10;16.10;;;;;;;7.63;82.81;100173.35;1716517;83;21159;-68
2020/12/29 00:29:17;;;;;;;40.85;14.85;;;;;;;7.67;82.93;100165.50;1729020;81;21612;-68
2020/12/29 00:31:44;;;;;;;52.65;15.20;;;;;;;7.74;83.07;100154.54;1729867;81;21655;-68
2020/12/29 00:34:12;;;;;;;35.95;13.32;;;;;;;7.84;82.71;100148.81;1701823;83;21185;-68
2020/12/29 00:36:39;;;;;;;36.13;15.03;;;;;;;7.85;82.90;100147.94;1702966;83;21552;-66
2020/12/29 00:39:07;;;;;;;36.35;14.40;;;;;;;7.95;82.66;100139.61;1683170;84;21669;-68
2020/12/29 00:41:36;;;;;;;33.18;14.13;;;;;;;7.97;82.53;100134.78;1676958;84;21199;-67
2020/12/29 00:44:04;;;;;;;47.40;15.63;;;;;;;8.00;82.50;100133.88;1686286;84;21642;-67
2020/12/29 00:46:32;;;;;;;48.92;15.18;;;;;;;8.04;82.45;100134.29;1682024;84;21303;-67
2020/12/29 00:48:59;;;;;;;43.45;16.77;;;;;;;7.99;82.64;100140.00;1683108;84;21223;-68
2020/12/29 00:51:27;;;;;;;42.88;15.55;;;;;;;7.99;82.87;100133.45;1693252;84;21309;-68
2020/12/29 00:54:00;;;;;;;55.12;15.30;;;;;;;8.07;82.61;100137.36;1708519;83;21162;-67
2020/12/29 00:56:29;;;;;;;35.43;12.90;;;;;;;8.09;82.83;100128.59;1675033;83;21158;-67
2020/12/29 00:58:58;;;;;;;40.67;14.20;;;;;;;8.09;82.83;100128.59;1722325;83;21579;-68
2020/12/29 01:01:27;;;;;;;37.90;11.88;;;;;;;8.11;82.47;100120.27;1713278;82;21260;-68
2020/12/29 01:04:05;;;;;;;57.80;15.58;;;;;;;8.16;82.49;100108.01;1806962;77;22138;-66
2020/12/29 01:06:33;;;;;;;52.23;14.45;;;;;;;8.14;82.49;100104.98;1766624;80;21146;-66
2020/12/29 01:09:02;;;;;;;39.65;12.13;;;;;;;8.18;82.49;100106.67;1761772;81;21269;-68
2020/12/29 01:11:32;;;;;;;58.90;15.13;;;;;;;8.11;82.83;100106.31;1755313;80;21125;-67
2020/12/29 01:14:02;;;;;;;42.25;15.18;;;;;;;8.10;83.06;100105.88;1789633;80;21315;-67
2020/12/29 01:16:30;;;;;;;35.88;13.93;;;;;;;8.15;82.91;100110.66;1756150;82;21170;-68
2020/12/29 01:18:59;;;;;;;57.08;14.50;;;;;;;8.17;82.85;100114.11;1756187;82;21206;-68
2020/12/29 01:21:26;;;;;;;33.30;13.60;;;;;;;8.18;82.81;100106.67;1759583;80;21582;-68
2020/12/29 01:23:54;;;;;;;38.63;12.60;;;;;;;8.19;82.73;100101.86;1767247;80;21582;-68
2020/12/29 01:26:25;;;;;;;28.70;13.03;;;;;;;8.23;82.60;100100.11;1793535;79;21180;-68
2020/12/29 01:28:53;;;;;;;29.07;12.98;;;;;;;8.23;82.59;100095.72;1793114;80;21602;-68
2020/12/29 01:31:31;;;;;;;42.98;13.65;;;;;;;8.24;82.51;100097.91;1769860;80;21557;-68
2020/12/29 01:33:59;;;;;;;45.17;13.75;;;;;;;8.27;82.48;100098.75;1788116;80;21099;-68
2020/12/29 01:36:27;;;;;;;47.00;13.58;;;;;;;8.30;82.49;100097.87;1793224;80;21188;-68
2020/12/29 01:38:55;;;;;;;53.28;13.75;;;;;;;8.33;82.44;100089.53;1793165;80;21171;-68
2020/12/29 01:41:23;;;;;;;44.60;12.15;;;;;;;8.31;82.80;100084.73;1782022;80;21618;-69
2020/12/29 01:43:50;;;;;;;59.55;14.40;;;;;;;8.35;82.87;100081.67;1753501;82;21191;-68
2020/12/29 01:46:18;;;;;;;48.08;13.00;;;;;;;8.44;82.67;100070.22;1753762;82;21603;-68
2020/12/29 01:48:46;;;;;;;42.62;14.07;;;;;;;8.44;82.65;100061.89;1760252;80;21603;-68
2020/12/29 01:51:14;;;;;;;25.75;12.15;;;;;;;8.45;82.61;100064.95;1774903;80;21188;-67
2020/12/29 01:53:41;;;;;;;33.58;12.60;;;;;;;8.52;82.49;100061.00;1753761;81;21641;-68
2020/12/29 01:56:10;;;;;;;34.27;13.45;;;;;;;8.61;82.14;100047.80;1753520;82;21606;-68
2020/12/29 01:58:39;;;;;;;32.98;13.85;;;;;;;8.57;82.28;100037.80;1753612;82;21194;-68
2020/12/29 02:01:06;;;;;;;33.02;12.68;;;;;;;8.59;82.36;100028.58;1761672;80;21191;-68
2020/12/29 02:03:34;;;;;;;45.60;14.47;;;;;;;8.62;82.29;100020.23;1754015;81;21588;-68
2020/12/29 02:06:02;;;;;;;48.95;14.75;;;;;;;8.63;82.39;100031.15;1703587;82;21310;-68
2020/12/29 02:08:29;;;;;;;63.35;14.58;;;;;;;8.63;82.50;100028.98;1769398;80;21154;-69
2020/12/29 02:10:57;;;;;;;34.23;14.55;;;;;;;8.66;82.54;100035.52;1754307;82;21107;-68
2020/12/29 02:13:24;;;;;;;43.78;14.85;;;;;;;8.71;82.49;100032.83;1754489;81;21210;-68
2020/12/29 02:15:52;;;;;;;46.98;15.13;;;;;;;8.67;82.71;100021.94;1754077;82;21150;-69
2020/12/29 02:18:20;;;;;;;49.75;16.97;;;;;;;8.92;81.86;100031.30;1768941;80;21143;-69
2020/12/29 02:20:47;;;;;;;77.42;18.05;;;;;;;8.91;81.49;100038.75;1784717;80;21135;-69
2020/12/29 02:23:15;;;;;;;79.00;15.48;;;;;;;8.72;82.56;100038.50;1784626;79;21150;-69
2020/12/29 02:25:43;;;;;;;39.88;17.82;;;;;;;8.75;82.66;100037.16;1784623;80;21587;-68
2020/12/29 02:28:10;;;;;;;42.20;16.70;;;;;;;8.74;82.62;100033.69;1761487;80;21590;-68
2020/12/29 02:30:38;;;;;;;29.90;15.65;;;;;;;8.72;82.57;100029.32;1753715;81;21330;-69
2020/12/29 02:33:06;;;;;;;36.35;16.97;;;;;;;8.73;82.46;100029.33;1754087;82;21202;-69
2020/12/29 02:35:34;;;;;;;46.40;17.37;;;;;;;8.75;82.55;100032.80;1754334;82;21128;-68
2020/12/29 02:38:02;;;;;;;70.57;19.52;;;;;;;8.75;82.80;100024.93;1774727;80;21594;-68
2020/12/29 02:40:30;;;;;;;43.90;17.48;;;;;;;8.83;82.76;100022.67;1771221;80;21195;-69
2020/12/29 02:42:58;;;;;;;41.10;19.30;;;;;;;8.93;82.50;100012.05;1753958;82;21309;-68
2020/12/29 02:45:25;;;;;;;39.08;19.17;;;;;;;8.92;82.97;100009.42;1754629;80;21634;-69
2020/12/29 02:47:53;;;;;;;32.90;19.27;;;;;;;8.98;83.00;100007.19;1753964;82;21555;-69
2020/12/29 02:50:20;;;;;;;45.70;19.75;;;;;;;9.00;83.41;100011.52;1753654;82;21644;-68
2020/12/29 02:52:48;;;;;;;36.85;20.00;;;;;;;9.10;83.31;100010.95;1754077;80;21600;-68
2020/12/29 02:55:17;;;;;;;40.45;18.77;;;;;;;9.17;83.28;100004.75;1770034;80;21130;-68
2020/12/29 02:57:45;;;;;;;30.62;16.93;;;;;;;9.25;83.28;100003.79;1776697;80;21146;-68
2020/12/29 03:00:13;;;;;;;37.08;19.25;;;;;;;9.33;83.62;99993.59;1785040;80;21307;-68
2020/12/29 03:02:40;;;;;;;39.63;20.80;;;;;;;9.51;84.00;99992.47;1771811;80;21586;-69
2020/12/29 03:05:08;;;;;;;33.53;17.32;;;;;;;9.67;83.89;99998.41;1787335;80;21127;-69
2020/12/29 03:07:36;;;;;;;35.43;17.67;;;;;;;9.80;84.44;99997.77;1792775;80;21598;-69
2020/12/29 03:10:08;;;;;;;37.10;19.67;;;;;;;9.97;84.10;99989.61;1792676;80;21154;-68
2020/12/29 03:12:40;;;;;;;37.00;17.27;;;;;;;10.11;83.88;99995.10;1785329;80;21154;-69
2020/12/29 03:15:08;;;;;;;40.48;18.67;;;;;;;10.19;84.28;99986.61;1761760;81;21542;-68
2020/12/29 03:17:35;;;;;;;33.28;16.95;;;;;;;10.35;83.96;99987.67;1792662;80;21249;-69
2020/12/29 03:20:06;;;;;;;27.62;15.68;;;;;;;10.44;83.95;99984.91;1792654;79;21563;-70
2020/12/29 03:22:35;;;;;;;27.90;16.77;;;;;;;10.50;83.76;99989.19;1783507;80;21155;-69
2020/12/29 03:25:03;;;;;;;36.93;16.10;;;;;;;10.54;83.63;99988.23;1792955;79;21167;-69
2020/12/29 03:27:30;;;;;;;29.65;15.95;;;;;;;10.58;83.67;99978.54;1793024;79;21515;-69
2020/12/29 03:29:58;;;;;;;32.65;16.05;;;;;;;10.64;83.56;99969.19;1792771;80;21137;-69
2020/12/29 03:32:25;;;;;;;28.27;14.80;;;;;;;10.70;83.30;99974.34;1768265;80;21142;-69
2020/12/29 03:34:54;;;;;;;28.98;16.37;;;;;;;10.67;83.36;99979.22;1767823;80;21184;-69
2020/12/29 03:37:22;;;;;;;31.62;13.85;;;;;;;10.66;83.42;99983.19;1761760;81;21182;-69
2020/12/29 03:39:51;;;;;;;30.65;14.30;;;;;;;10.69;83.35;99986.64;1763783;80;21243;-69
2020/12/29 03:42:18;;;;;;;31.00;15.55;;;;;;;10.72;83.11;99977.80;1761602;81;21602;-69
2020/12/29 03:44:47;;;;;;;33.58;15.30;;;;;;;10.84;82.71;99981.95;1761580;81;21143;-70
2020/12/29 03:47:15;;;;;;;31.52;15.18;;;;;;;10.96;82.18;99975.61;1761624;81;21569;-69
2020/12/29 03:49:45;;;;;;;32.80;15.40;;;;;;;10.97;81.90;99972.08;1773915;80;21119;-69
2020/12/29 03:52:12;;;;;;;27.65;13.30;;;;;;;10.93;81.97;99976.52;1790371;80;21091;-69
2020/12/29 03:54:39;;;;;;;25.37;12.53;;;;;;;10.87;82.14;99987.16;1792462;79;21292;-69
2020/12/29 03:57:07;;;;;;;32.65;13.93;;;;;;;10.83;82.11;99999.53;1792759;80;21143;-70
2020/12/29 03:59:35;;;;;;;27.45;13.88;;;;;;;10.90;81.90;99992.38;1778297;79;21130;-70
2020/12/29 04:02:02;;;;;;;32.78;14.23;;;;;;;10.89;81.86;99991.10;1792547;80;21712;-69
2020/12/29 04:04:30;;;;;;;31.17;13.38;;;;;;;10.89;81.78;99998.53;1781671;80;21623;-69
2020/12/29 04:06:58;;;;;;;30.20;13.60;;;;;;;10.80;81.82;99987.75;1766309;80;21583;-70
2020/12/29 04:09:30;;;;;;;22.20;13.53;;;;;;;10.80;81.81;99986.43;1748667;81;21618;-70
2020/12/29 04:11:58;;;;;;;32.13;13.30;;;;;;;10.68;82.22;100000.70;1748288;82;21151;-69
2020/12/29 04:14:26;;;;;;;29.05;15.78;;;;;;;10.72;82.14;99997.55;1748048;82;21179;-70
2020/12/29 04:16:55;;;;;;;33.38;15.40;;;;;;;10.70;81.96;99986.18;1758236;81;21519;-69
2020/12/29 04:19:23;;;;;;;30.93;14.37;;;;;;;10.67;81.99;99980.97;1777085;80;21119;-70
2020/12/29 04:21:50;;;;;;;28.07;12.95;;;;;;;10.66;82.02;99989.33;1778689;81;21614;-69
2020/12/29 04:24:19;;;;;;;31.60;13.58;;;;;;;10.64;81.63;99979.28;1778731;81;21136;-69
2020/12/29 04:26:48;;;;;;;27.42;12.35;;;;;;;10.59;81.49;99977.64;1757141;81;21179;-70
2020/12/29 04:29:15;;;;;;;29.42;13.48;;;;;;;10.51;81.54;99974.70;1778972;81;21567;-69
2020/12/29 04:31:43;;;;;;;27.00;12.18;;;;;;;10.52;81.33;99983.02;1778770;81;21127;-70
2020/12/29 04:34:11;;;;;;;25.45;12.33;;;;;;;10.45;81.52;99976.13;1778806;81;21194;-70
2020/12/29 04:36:39;;;;;;;22.93;11.40;;;;;;;10.43;81.66;99979.23;1762828;81;21554;-70
2020/12/29 04:39:06;;;;;;;27.05;11.68;;;;;;;10.39;81.50;99971.83;1778724;81;21618;-70
2020/12/29 04:41:35;;;;;;;20.88;11.08;;;;;;;10.29;81.45;99970.25;1771099;81;21127;-69
2020/12/29 04:44:03;;;;;;;19.77;9.28;;;;;;;10.29;81.29;99972.88;1767527;81;22437;-69
2020/12/29 04:46:31;;;;;;;20.60;9.80;;;;;;;10.20;81.31;99975.20;1777770;81;21172;-70
2020/12/29 04:48:59;;;;;;;20.48;8.95;;;;;;;10.12;81.43;99970.08;1767961;81;21585;-69
2020/12/29 04:51:28;;;;;;;22.60;10.13;;;;;;;10.06;81.57;99974.59;1778872;81;21148;-70
2020/12/29 04:53:57;;;;;;;23.57;9.18;;;;;;;10.07;81.44;99977.64;1755814;81;21187;-70
2020/12/29 04:56:31;;;;;;;24.98;9.20;;;;;;;9.99;81.77;99976.42;1777753;81;21571;-70
2020/12/29 04:59:00;;;;;;;21.30;8.28;;;;;;;10.02;81.65;99968.48;1779060;81;21583;-70
2020/12/29 05:01:32;;;;;;;18.92;8.55;;;;;;;9.97;81.84;99973.84;1779016;80;21120;-69
2020/12/29 05:04:02;;;;;;;17.40;7.67;;;;;;;9.98;82.23;99972.06;1754800;81;21158;-70
2020/12/29 05:06:30;;;;;;;16.40;8.00;;;;;;;10.08;81.73;99974.97;1787235;80;21115;-70
2020/12/29 05:08:57;;;;;;;21.35;8.68;;;;;;;10.08;81.76;99973.65;1792642;80;21614;-69
2020/12/29 05:11:25;;;;;;;17.48;8.75;;;;;;;10.07;81.90;99984.20;1748536;80;21753;-70
2020/12/29 05:13:53;;;;;;;16.45;7.67;;;;;;;10.11;81.84;99990.70;1790742;80;21531;-70
2020/12/29 05:16:20;;;;;;;18.23;9.65;;;;;;;10.19;81.51;99985.30;1792768;80;21590;-70
2020/12/29 05:18:48;;;;;;;20.12;8.18;;;;;;;10.19;81.40;99980.50;1784709;80;21162;-70
2020/12/29 05:21:16;;;;;;;18.75;8.00;;;;;;;10.19;81.48;99973.92;1775468;80;21142;-70
2020/12/29 05:23:43;;;;;;;20.12;8.33;;;;;;;10.11;81.44;99978.86;1791926;80;21597;-70
2020/12/29 05:26:14;;;;;;;20.77;7.85;;;;;;;10.11;81.68;99981.95;1792788;80;21314;-70
2020/12/29 05:28:42;;;;;;;21.90;7.75;;;;;;;10.10;81.71;99977.13;1792932;79;21625;-69
2020/12/29 05:31:10;;;;;;;20.50;7.40;;;;;;;10.02;82.05;99968.95;1775115;80;21127;-70
2020/12/29 05:33:38;;;;;;;21.12;8.18;;;;;;;10.03;82.04;99971.54;1751979;81;21578;-71
2020/12/29 05:36:05;;;;;;;21.57;7.30;;;;;;;10.04;82.01;99973.28;1744747;81;21611;-70
2020/12/29 05:38:34;;;;;;;16.97;7.62;;;;;;;10.08;81.93;99981.54;1766697;80;21134;-69
2020/12/29 05:41:01;;;;;;;23.38;8.13;;;;;;;10.10;81.79;99990.27;1750185;80;21590;-70
2020/12/29 05:43:32;;;;;;;18.65;7.42;;;;;;;10.13;81.73;99961.77;1775943;80;21324;-69
2020/12/29 05:46:07;;;;;;;19.45;7.60;;;;;;;10.12;81.51;99956.08;1761788;81;21623;-70
2020/12/29 05:48:35;;;;;;;20.43;6.85;;;;;;;10.09;81.45;99959.61;1758212;80;21138;-71
2020/12/29 05:51:13;;;;;;;17.37;7.53;;;;;;;10.07;81.78;99961.40;1792697;80;21192;-70
2020/12/29 05:53:42;;;;;;;12.23;6.95;;;;;;;10.08;81.75;99954.39;1790189;79;21305;-69
2020/12/29 05:56:09;;;;;;;14.05;7.05;;;;;;;10.10;81.83;99952.61;1763399;80;21190;-70
2020/12/29 05:58:37;;;;;;;19.42;6.95;;;;;;;10.16;81.44;99947.67;1709048;81;21143;-69
2020/12/29 06:01:04;;;;;;;22.05;7.85;;;;;;;10.19;81.24;99948.48;1762599;80;21583;-70
2020/12/29 06:03:33;;;;;;;25.92;8.78;;;;;;;10.19;81.39;99955.05;1773453;80;21629;-70
2020/12/29 06:06:00;;;;;;;25.00;8.48;;;;;;;10.15;81.48;99962.60;1791927;79;21147;-70
2020/12/29 06:08:28;;;;;;;15.32;8.23;;;;;;;10.11;81.64;99963.55;1750373;80;21894;-70
2020/12/29 06:10:59;;;;;;;17.15;6.87;;;;;;;10.10;81.63;99964.44;1775433;80;21120;-69
2020/12/29 06:13:27;;;;;;;;;;;;;;;10.08;81.76;99969.70;1792569;79;21273;-70
2020/12/29 06:15:58;;;;;;;24.47;7.97;;;;;;;10.12;81.63;99973.17;1762167;80;20167;-70
2020/12/29 06:18:35;;;;;;;16.90;6.90;;;;;;;10.18;81.17;99969.09;1721254;81;21141;-69
2020/12/29 06:21:07;;;;;;;19.85;7.05;;;;;;;10.16;81.14;99973.97;1792821;80;21162;-70
2020/12/29 06:23:44;;;;;;;17.67;6.03;;;;;;;10.08;81.69;99975.42;1789902;79;21218;-71
2020/12/29 06:26:18;;;;;;;20.30;6.92;;;;;;;10.08;81.80;99980.22;1753920;80;21134;-70
2020/12/29 06:28:51;;;;;;;18.12;6.42;;;;;;;10.17;81.66;99976.56;1779497;80;21139;-70
2020/12/29 06:31:27;;;;;;;15.72;5.92;;;;;;;10.19;81.54;99968.20;1776459;80;21623;-70
2020/12/29 06:33:57;;;;;;;16.15;6.58;;;;;;;10.21;81.51;99962.47;1775598;79;21131;-69
2020/12/29 06:36:27;;;;;;;23.25;7.20;;;;;;;10.24;81.49;99962.87;1775562;79;21302;-69
2020/12/29 06:38:58;;;;;;;15.98;5.62;;;;;;;10.39;81.23;99964.39;1763619;80;21574;-70
2020/12/29 06:41:25;;;;;;;16.00;6.22;;;;;;;10.42;81.47;99964.34;1774983;79;21135;-69
2020/12/29 06:43:53;;;;;;;15.72;6.12;;;;;;;10.45;81.58;99956.39;1740962;80;21610;-68
2020/12/29 06:46:21;;;;;;;17.85;6.30;;;;;;;10.56;81.50;99962.77;1783796;80;21172;-70
2020/12/29 06:48:49;;;;;;;15.45;6.05;;;;;;;10.64;81.65;99954.70;1775923;80;21139;-69
2020/12/29 06:51:16;;;;;;;19.15;6.53;;;;;;;10.75;81.68;99942.22;1777030;79;21123;-70
2020/12/29 06:53:44;;;;;;;13.30;5.65;;;;;;;10.84;81.89;99938.52;1777625;80;21277;-70
2020/12/29 06:56:17;;;;;;;16.20;5.80;;;;;;;10.95;81.76;99943.13;1775381;80;21127;-69
2020/12/29 06:58:46;;;;;;;23.45;7.05;;;;;;;11.09;81.35;99935.39;1775058;80;21084;-68
2020/12/29 07:01:24;;;;;;;20.40;6.55;;;;;;;11.23;81.15;99935.96;1775739;80;21617;-70
2020/12/29 07:04:05;;;;;;;24.65;6.75;;;;;;;11.31;80.87;99933.15;1774867;80;21179;-71
2020/12/29 07:06:35;;;;;;;19.87;5.97;;;;;;;11.43;80.32;99927.61;1777738;80;21138;-70
2020/12/29 07:09:17;;;;;;;16.57;5.97;;;;;;;11.55;80.37;99938.73;1709606;83;21364;-68
2020/12/29 07:12:08;;;;;;;20.35;7.25;;;;;;;11.69;79.33;99932.70;1709437;83;21505;-69
2020/12/29 07:14:37;;;;;;;15.45;6.35;;;;;;;11.81;79.26;99935.95;1719737;82;21160;-69
2020/12/29 07:17:06;;;;;;;17.87;6.25;;;;;;;11.70;79.58;99934.44;1717386;83;21599;-67
2020/12/29 07:19:39;;;;;;;17.90;6.40;;;;;;;11.71;79.39;99928.69;1707773;83;21309;-68
2020/12/29 07:22:18;;;;;;;15.35;6.37;;;;;;;11.88;79.14;99945.45;1623052;88;21128;-67
2020/12/29 07:24:46;;;;;;;19.27;6.47;;;;;;;11.99;78.79;99946.06;1640262;85;21186;-69
2020/12/29 07:27:14;;;;;;;18.95;7.08;;;;;;;12.14;78.78;99938.67;1682210;85;21147;-68
2020/12/29 07:29:54;;;;;;;17.73;7.83;;;;;;;12.17;78.75;99934.64;1685987;85;21186;-68
2020/12/29 07:32:22;;;;;;;21.75;8.10;;;;;;;12.31;77.85;99933.83;1684519;84;21628;-68
2020/12/29 07:34:50;;;;;;;16.73;7.92;;;;;;;12.20;77.97;99932.77;1680055;84;21520;-69
2020/12/29 07:37:22;;;;;;;23.90;8.23;;;;;;;12.18;77.87;99937.69;1648911;86;21618;-69
2020/12/29 07:39:50;;;;;;;20.62;6.65;;;;;;;12.13;77.98;99947.05;1691663;84;21240;-69
2020/12/29 07:42:21;;;;;;;14.50;6.28;;;;;;;12.17;78.13;99943.40;1691454;85;21308;-69
2020/12/29 07:44:50;;;;;;;19.35;6.85;;;;;;;12.17;78.00;99947.36;1649123;87;21277;-69
2020/12/29 07:47:18;;;;;;;16.15;6.62;;;;;;;12.10;78.14;99951.52;1691684;85;21546;-69
2020/12/29 07:49:47;;;;;;;21.12;7.85;;;;;;;12.13;78.13;99948.80;1666035;85;21166;-69
2020/12/29 07:52:31;;;;;;;20.45;7.72;;;;;;;12.18;78.06;99960.11;1715137;84;21174;-67
2020/12/29 07:55:10;;;;;;;15.00;6.35;;;;;;;12.25;78.12;99944.98;1707841;84;21228;-69
2020/12/29 07:57:38;;;;;;;17.48;7.30;;;;;;;12.28;77.79;99948.86;1648365;86;21306;-68
2020/12/29 08:00:12;;;;;;;20.10;8.45;;;;;;;12.28;77.62;99951.50;1700400;84;21613;-68
2020/12/29 08:02:41;;;;;;;18.02;7.25;;;;;;;12.31;77.45;99948.34;1699696;83;21129;-68
2020/12/29 08:05:10;;;;;;;25.75;10.70;;;;;;;12.32;77.32;99947.44;1691117;84;21602;-68
2020/12/29 08:07:38;;;;;;;33.98;16.10;;;;;;;12.40;76.91;99948.54;1691557;85;21315;-67
2020/12/29 08:10:07;;;;;;;22.30;8.48;;;;;;;12.58;76.63;99956.88;1649017;86;21174;-68
2020/12/29 08:12:35;;;;;;;19.27;6.95;;;;;;;12.62;76.39;99947.50;1673787;85;21148;-69
2020/12/29 08:15:03;;;;;;;30.57;13.15;;;;;;;12.81;76.32;99959.32;1688387;84;21128;-67
2020/12/29 08:17:31;;;;;;;25.72;10.28;;;;;;;12.85;76.10;99948.61;1669349;86;21156;-68
2020/12/29 08:19:59;;;;;;;26.55;8.75;;;;;;;12.97;75.90;99942.58;1683801;84;21598;-68
2020/12/29 08:22:28;;;;;;;22.60;10.63;;;;;;;13.05;75.77;99953.79;1707686;82;21658;-68
2020/12/29 08:24:56;;;;;;;24.72;9.88;;;;;;;13.19;75.44;99948.97;1714902;83;21130;-69
2020/12/29 08:27:24;;;;;;;23.50;8.15;;;;;;;13.29;74.96;99963.20;1718126;83;21142;-68
2020/12/29 08:29:51;;;;;;;20.50;7.83;;;;;;;13.42;74.85;99954.03;1716484;83;21158;-69
2020/12/29 08:32:22;;;;;;;16.60;6.30;;;;;;;13.42;73.95;99961.11;1711036;84;21607;-68
2020/12/29 08:34:49;;;;;;;22.77;6.03;;;;;;;13.52;73.97;99950.63;1666063;86;21185;-68
2020/12/29 08:37:22;;;;;;;21.05;8.00;;;;;;;13.57;73.76;99938.61;1712029;84;21281;-69
2020/12/29 08:39:54;;;;;;;24.10;13.18;;;;;;;13.56;73.02;99944.34;1712268;83;21559;-68
2020/12/29 08:42:22;;;;;;;28.00;12.95;;;;;;;13.60;73.64;99934.55;1715528;83;21178;-68
2020/12/29 08:44:50;;;;;;;33.40;15.88;;;;;;;13.59;73.37;99950.85;1716016;83;21229;-67
2020/12/29 08:47:19;;;;;;;36.88;16.93;;;;;;;13.69;73.10;99922.33;1717722;83;21662;-69
2020/12/29 08:49:46;;;;;;;23.10;12.68;;;;;;;13.80;73.43;99936.55;1724174;83;21144;-68
2020/12/29 08:52:14;;;;;;;22.98;8.33;;;;;;;13.87;73.02;99929.27;1720436;83;21123;-68
2020/12/29 08:54:41;;;;;;;18.82;6.87;;;;;;;13.88;72.64;99950.39;1689667;83;21276;-68
2020/12/29 08:57:10;;;;;;;16.05;5.17;;;;;;;13.90;72.61;99934.02;1724447;83;21173;-69
2020/12/29 08:59:53;;;;;;;19.42;5.55;;;;;;;13.91;72.23;99946.29;1585970;89;21656;-67
2020/12/29 09:02:30;;;;;;;17.85;5.62;;;;;;;13.96;72.79;99924.52;1569409;90;21349;-67
2020/12/29 09:04:58;;;;;;;16.60;7.53;;;;;;;14.01;72.24;99923.50;1587496;90;21237;-69
2020/12/29 09:07:28;;;;;;;19.57;5.80;;;;;;;14.04;72.46;99930.89;1588262;90;21262;-71
2020/12/29 09:12:35;;;;;;;18.02;4.83;;;;;;;14.17;71.79;99937.95;1834764;77;22148;-68
2020/12/29 09:15:08;;;;;;;14.47;4.35;;;;;;;14.15;71.65;99941.11;1700477;83;21611;-68
2020/12/29 09:17:42;;;;;;;18.00;5.37;;;;;;;14.09;71.03;99943.52;1726761;83;21134;-69
2020/12/29 09:20:19;;;;;;;19.35;4.97;;;;;;;14.10;71.12;99951.86;1713314;84;21215;-68
2020/12/29 09:23:02;;;;;;;17.10;5.78;;;;;;;14.05;71.47;99953.80;1699246;83;21189;-69
2020/12/29 09:25:36;;;;;;;17.75;5.25;;;;;;;13.97;71.44;99965.09;1722397;83;21126;-69
2020/12/29 09:28:23;;;;;;;18.77;5.33;;;;;;;13.96;71.11;99960.23;1724998;83;21158;-68
2020/12/29 09:31:10;;;;;;;15.15;4.58;;;;;;;13.97;71.17;99961.97;1724567;83;21150;-69
2020/12/29 09:33:39;;;;;;;11.93;4.83;;;;;;;13.95;71.55;99952.36;1733504;82;21121;-69
2020/12/29 09:36:20;;;;;;;26.20;8.03;;;;;;;14.11;71.50;99945.66;1721923;82;21189;-69
2020/12/29 09:38:49;;;;;;;19.20;6.33;;;;;;;14.08;71.16;99955.02;1719122;83;21592;-68
2020/12/29 09:41:18;;;;;;;19.10;4.90;;;;;;;14.07;71.33;99953.73;1743449;82;21155;-67
2020/12/29 09:43:47;;;;;;;15.03;5.10;;;;;;;14.03;70.94;99955.63;1728555;83;21656;-68
2020/12/29 09:46:15;;;;;;;16.35;5.40;;;;;;;13.85;71.48;99955.78;1743668;82;21156;-68
2020/12/29 09:48:43;;;;;;;15.68;5.22;;;;;;;13.97;71.82;99951.38;1725749;83;21130;-69
2020/12/29 09:51:13;;;;;;;17.55;6.62;;;;;;;14.11;71.44;99953.59;1725993;82;21150;-69
2020/12/29 09:53:40;;;;;;;23.30;6.75;;;;;;;14.23;71.09;99937.74;1725300;83;21171;-70
2020/12/29 09:56:08;;;;;;;19.60;5.45;;;;;;;14.37;70.91;99937.70;1698991;84;21166;-69
2020/12/29 09:58:35;;;;;;;20.62;6.20;;;;;;;14.35;70.55;99937.77;1699320;84;21609;-71
2020/12/29 10:01:04;;;;;;;20.40;6.85;;;;;;;14.42;70.10;99933.99;1699863;83;21307;-69
2020/12/29 10:03:32;;;;;;;13.00;6.17;;;;;;;14.37;69.88;99937.26;1714722;84;21132;-68
2020/12/29 10:06:01;;;;;;;18.00;5.75;;;;;;;14.45;70.00;99938.78;1699161;83;21161;-67
2020/12/29 10:08:29;;;;;;;16.23;5.67;;;;;;;14.23;70.47;99947.45;1718621;82;21317;-71
2020/12/29 10:10:58;;;;;;;24.23;6.55;;;;;;;14.19;70.19;99935.23;1715466;81;21601;-71
2020/12/29 10:13:26;;;;;;;14.78;5.78;;;;;;;14.23;69.74;99938.19;1759314;80;21147;-70
2020/12/29 10:15:54;;;;;;;33.02;14.58;;;;;;;14.20;69.94;99933.88;1756928;81;21104;-71
2020/12/29 10:18:22;;;;;;;19.07;8.88;;;;;;;14.27;70.04;99940.70;1765746;80;21087;-71
2020/12/29 10:20:51;;;;;;;21.48;8.83;;;;;;;14.26;69.95;99949.55;1777412;80;21654;-72
2020/12/29 10:23:19;;;;;;;23.20;7.23;;;;;;;14.30;69.65;99956.91;1756722;82;21578;-69
2020/12/29 10:25:48;;;;;;;16.10;5.25;;;;;;;14.23;69.66;99956.71;1756061;82;21174;-71
2020/12/29 10:28:16;;;;;;;18.60;6.87;;;;;;;14.20;69.77;99950.20;1762728;80;21119;-69
2020/12/29 10:30:48;;;;;;;19.75;6.80;;;;;;;14.20;69.60;99951.08;1782882;80;21348;-70
2020/12/29 10:33:16;;;;;;;27.90;13.15;;;;;;;14.03;70.14;99953.42;1768324;80;21117;-71
2020/12/29 10:35:46;;;;;;;24.87;12.40;;;;;;;14.05;70.18;99948.95;1783540;80;21192;-69
2020/12/29 10:38:14;;;;;;;23.60;10.68;;;;;;;14.05;70.00;99947.17;1767760;80;21570;-72
2020/12/29 10:40:41;;;;;;;22.82;9.48;;;;;;;14.06;69.85;99953.32;1756421;81;21718;-71
2020/12/29 10:43:10;;;;;;;32.70;19.37;;;;;;;14.09;69.26;99940.87;1756335;81;22034;-68
2020/12/29 10:45:38;;;;;;;22.55;11.95;;;;;;;14.05;69.27;99954.23;1757507;80;21192;-70
2020/12/29 10:48:06;;;;;;;16.93;5.92;;;;;;;14.04;69.24;99948.09;1756931;80;21273;-68
2020/12/29 10:50:34;;;;;;;17.95;5.80;;;;;;;14.00;69.05;99937.20;1774730;80;21159;-71
2020/12/29 10:53:02;;;;;;;15.80;5.10;;;;;;;13.98;69.03;99933.74;1787510;80;21135;-71
2020/12/29 10:55:30;;;;;;;16.85;4.12;;;;;;;13.73;69.98;99944.27;1771358;80;21122;-68
2020/12/29 10:57:59;;;;;;;14.33;3.62;;;;;;;13.83;69.76;99937.30;1740902;80;21155;-69
2020/12/29 11:00:26;;;;;;;11.40;2.90;;;;;;;13.76;70.11;99953.42;1769886;80;21551;-68
2020/12/29 11:02:54;;;;;;;12.85;3.40;;;;;;;13.78;70.23;99953.77;1774294;80;21135;-71
2020/12/29 11:05:23;;;;;;;11.93;3.75;;;;;;;13.86;70.02;99960.59;1758602;79;21285;-68
2020/12/29 11:07:51;;;;;;;12.47;4.83;;;;;;;13.85;70.06;99948.28;1756110;80;21128;-71
2020/12/29 11:10:18;;;;;;;12.85;3.55;;;;;;;13.87;69.84;99960.56;1718468;83;21654;-71
2020/12/29 11:12:46;;;;;;;10.80;4.03;;;;;;;13.91;70.05;99944.12;1775444;80;21563;-72
2020/12/29 11:15:14;;;;;;;14.73;4.53;;;;;;;13.94;70.07;99948.84;1750190;81;21334;-71
2020/12/29 11:17:42;;;;;;;21.35;7.97;;;;;;;13.93;70.22;99943.61;1748172;82;21618;-70
2020/12/29 11:20:10;;;;;;;16.37;5.22;;;;;;;13.96;70.39;99948.33;1748171;82;22528;-68
2020/12/29 11:22:37;;;;;;;19.07;7.22;;;;;;;14.02;70.31;99939.34;1757022;81;21924;-71
2020/12/29 11:25:05;;;;;;;16.95;4.22;;;;;;;14.09;70.17;99943.52;1768808;80;21631;-67
2020/12/29 11:27:32;;;;;;;18.15;3.83;;;;;;;14.13;70.26;99935.84;1779304;80;21302;-72
2020/12/29 11:30:00;;;;;;;12.75;3.60;;;;;;;14.25;69.92;99941.64;1774297;81;21575;-68
2020/12/29 11:32:29;;;;;;;12.00;3.72;;;;;;;14.33;69.46;99934.78;1767739;81;21214;-71
2020/12/29 11:34:57;;;;;;;16.70;4.12;;;;;;;14.41;69.44;99937.56;1768945;81;21168;-70